Purdue University Airport
KLAF : now visible

Aeroporto :











RITROVATECI SU...

 
LOGIN :

Iscrizione | Disclaimer

   EN    FR    IT 

 









Sommario :    VFR   VFR Marginale   IFR   IFR Intensivo   IFR Molto Intensivo
Visibilità : 
Base nubi : 
>= 8 km
>= 3000ft
5 / 8 km
1000 / 3000 ft
1500m / 5 km
500 / 1000 ft
800 / 1500m
200 / 500 ft
< 800m
< 200 ft
Simboli :   Temporali  Nebbia  Neve Forte  Precipitazioni Forti  Vento > 20 kt






- Altitudine del aeroporto : 606 ft
- Codice IATA : LAF


KLAF - Purdue University

ULTIMO METAR :
  • 050854Z AUTO 00000KT 7SM CLR 22/21 A2996 RMK AO2 SLP139 T02220206 58003

METARs OBSOLETI :
  • 050754Z AUTO 00000KT 9SM FEW095 23/21 A2996 RMK AO2 SLP139 T02330211
  • 050654Z AUTO 00000KT 7SM BKN110 23/21 A2997 RMK AO2 SLP142 T02330211

TAF KLAF
Valido dal 05 a 06 ore il 06 a 06 ore UTC


050525Z 0506/0606 00000KT P6SM SKC
FM051600 VRB03KT P6SM FEW035 FEW050
FM060100 VRB03KT P6SM FEW050 FEW250 AMD LTD TO CLD VIS AND WIND TIL 051300
FIR KZAU / America del Nord



MetMap, La meteo Aeronautica in un colpo d'occhio ! - Copyright ORBIFLY Dicembre 2007 - Disclaimer

ORBIFLY MET'MAP TEAM :

Programmazione e sviluppo : Alexandra Zaïnal
Concezione : Baudouin d'Aumeries
Aiuto per la programmazione : Marc-Olivier Méhu
Supporto tecnico e logistico : Manuel Goepfert
Aiuto per la traduzione : Arnaldo La Scala

Contatto : metmap@orbifly.com




FONTI E CREDITI :

   NOAA       Earth
Advisory